East Boston, Massachusetts
Current Conditions -  °F | °C
As of 9:54 AM on Monday 24 Nov 2014 (Local Time) from KBOS Reporting Station
Light Rain Light Rain  
Wind Chill: 60°   Ceiling: 1200
Heat Index: 60°   Visibility: 2mi
Dew Point: 58°   Wind: 18mph
Humidity: 93%   Direction: 180°S
Pressure: 29.74"   Gusts: 28mph
Location:  42.3583°N, 71.0602°W
Report Text: KBOS 241454Z 18016G24KT 2SM R04R/5000VP6000FT -RA BR OVC012 16/14 A2974 RMK AO2 PK WND 17027/1403 SLP069 P0008 60017 T01560144 56049
Loading
Personal Weather Stations






























Interactive Weather Map New forecast layout! Learn more

10-Day Weather Forecast

Advertisements
Track Severe Weather on mobile